createdAt,value
2023-02-28T00:00:52.676Z,-1.20
2023-02-28T00:03:22.728Z,-1.18
2023-02-28T00:05:52.807Z,-1.16
2023-02-28T00:08:22.836Z,-1.15
2023-02-28T00:10:52.895Z,-1.13
2023-02-28T00:13:23.056Z,-1.01
2023-02-28T00:16:24.121Z,-1.02
2023-02-28T00:18:53.208Z,-1.01
2023-02-28T00:21:22.209Z,-1.04
2023-02-28T00:23:50.480Z,-1.10
2023-02-28T00:26:21.287Z,-1.11
2023-02-28T00:28:53.997Z,-1.03
2023-02-28T00:31:24.513Z,-0.95
2023-02-28T00:33:54.577Z,-0.94
2023-02-28T00:36:24.812Z,-0.90
2023-02-28T00:38:54.847Z,-0.87
2023-02-28T00:41:24.933Z,-0.91
2023-02-28T00:43:54.986Z,-0.87
2023-02-28T00:46:25.267Z,-0.92
2023-02-28T00:48:55.381Z,-0.97
2023-02-28T00:51:25.522Z,-0.98
2023-02-28T00:53:55.644Z,-1.00
2023-02-28T00:56:25.635Z,-1.04
2023-02-28T00:58:55.607Z,-1.08
2023-02-28T01:01:25.728Z,-1.10
2023-02-28T01:03:55.776Z,-1.11
2023-02-28T01:06:25.937Z,-1.12
2023-02-28T01:08:54.258Z,-1.12
2023-02-28T01:11:22.703Z,-1.14
2023-02-28T01:13:51.380Z,-1.11
2023-02-28T01:16:19.932Z,-1.11
2023-02-28T01:18:47.954Z,-1.13
2023-02-28T01:21:22.159Z,-1.13
2023-02-28T01:23:52.548Z,-1.12
2023-02-28T01:26:25.155Z,-1.08
2023-02-28T01:28:55.303Z,-1.12
2023-02-28T01:31:26.967Z,-1.14
2023-02-28T01:33:57.290Z,-1.19
2023-02-28T01:36:27.772Z,-1.21
2023-02-28T01:38:58.166Z,-1.24
2023-02-28T01:41:34.538Z,-1.27
2023-02-28T01:44:56.423Z,-1.33
2023-02-28T01:47:39.556Z,-1.37
2023-02-28T01:50:21.683Z,-1.41
2023-02-28T01:52:56.283Z,-1.45
2023-02-28T01:55:29.657Z,-1.48
2023-02-28T01:58:06.726Z,-1.50
2023-02-28T02:00:35.927Z,-1.53
2023-02-28T02:03:17.284Z,-1.57
2023-02-28T02:05:48.646Z,-1.59
2023-02-28T02:08:29.138Z,-1.60
2023-02-28T02:11:03.680Z,-1.61
2023-02-28T02:14:27.359Z,-1.66
2023-02-28T02:17:22.100Z,-1.73
2023-02-28T02:21:15.975Z,-1.80
2023-02-28T02:24:20.880Z,-1.89
2023-02-28T02:27:20.780Z,-1.97
2023-02-28T02:30:18.739Z,-2.03
2023-02-28T02:33:44.070Z,-2.12
2023-02-28T02:36:44.563Z,-2.19
2023-02-28T02:39:35.036Z,-2.28
2023-02-28T02:43:02.248Z,-2.37
2023-02-28T02:46:11.215Z,-2.47
2023-02-28T02:48:45.533Z,-2.54
2023-02-28T02:51:24.163Z,-2.63
2023-02-28T02:54:09.817Z,-2.74
2023-02-28T02:56:48.156Z,-2.84
2023-02-28T02:59:25.038Z,-2.92
2023-02-28T03:02:04.814Z,-3.00
2023-02-28T03:04:53.737Z,-3.07
2023-02-28T03:07:23.740Z,-3.15
2023-02-28T03:09:57.779Z,-3.23
2023-02-28T03:13:04.968Z,-3.29
2023-02-28T03:16:24.323Z,-3.35
2023-02-28T03:19:32.205Z,-3.41
2023-02-28T03:22:33.404Z,-3.45
2023-02-28T03:25:27.575Z,-3.48
2023-02-28T03:28:24.233Z,-3.52
2023-02-28T03:31:31.565Z,-3.54
2023-02-28T03:34:27.708Z,-3.56
2023-02-28T03:37:13.450Z,-3.58
2023-02-28T03:40:07.854Z,-3.59
2023-02-28T03:42:46.255Z,-3.62
2023-02-28T03:45:31.324Z,-3.64
2023-02-28T03:48:50.106Z,-3.69
2023-02-28T03:51:28.703Z,-3.74
2023-02-28T03:54:14.139Z,-3.78
2023-02-28T03:57:07.220Z,-3.81
2023-02-28T03:59:55.457Z,-3.85
2023-02-28T04:02:25.905Z,-3.92
2023-02-28T04:04:56.055Z,-3.96
2023-02-28T04:07:31.569Z,-4.01
2023-02-28T04:10:01.692Z,-4.04
2023-02-28T04:12:31.833Z,-4.10
2023-02-28T04:15:01.966Z,-4.12
2023-02-28T04:17:32.009Z,-4.14
2023-02-28T04:20:02.046Z,-4.17
2023-02-28T04:22:32.033Z,-4.20
2023-02-28T04:25:02.066Z,-4.23
2023-02-28T04:27:32.830Z,-4.27
2023-02-28T04:30:03.501Z,-4.30
2023-02-28T04:32:32.102Z,-4.33
2023-02-28T04:35:02.220Z,-4.37
2023-02-28T04:37:35.847Z,-4.41
2023-02-28T04:40:07.106Z,-4.44
2023-02-28T04:42:37.169Z,-4.46
2023-02-28T04:45:11.216Z,-4.47
2023-02-28T04:47:41.218Z,-4.50
2023-02-28T04:50:11.837Z,-4.53
2023-02-28T04:52:41.858Z,-4.56
2023-02-28T04:55:11.905Z,-4.58
2023-02-28T04:57:43.616Z,-4.60
2023-02-28T05:00:16.342Z,-4.62
2023-02-28T05:02:46.405Z,-4.65
2023-02-28T05:05:19.157Z,-4.67
2023-02-28T05:07:49.223Z,-4.71
2023-02-28T05:10:19.550Z,-4.73
2023-02-28T05:12:49.670Z,-4.76
2023-02-28T05:15:19.711Z,-4.78
2023-02-28T05:17:49.727Z,-4.79
2023-02-28T05:20:19.879Z,-4.83
2023-02-28T05:22:51.499Z,-4.85
2023-02-28T05:25:23.755Z,-4.90
2023-02-28T05:27:53.800Z,-4.92
2023-02-28T05:30:23.859Z,-4.93
2023-02-28T05:32:53.909Z,-4.96
2023-02-28T05:35:24.890Z,-4.98
2023-02-28T05:37:54.950Z,-4.99
2023-02-28T05:40:25.081Z,-5.01
2023-02-28T05:42:55.108Z,-5.03
2023-02-28T05:45:25.208Z,-5.04
2023-02-28T05:47:56.932Z,-5.05
2023-02-28T05:50:26.928Z,-5.08
2023-02-28T05:52:56.968Z,-5.07
2023-02-28T05:55:27.188Z,-5.06
2023-02-28T05:57:57.605Z,-5.05
2023-02-28T06:00:27.869Z,-5.07
2023-02-28T06:03:01.069Z,-5.07
2023-02-28T06:05:31.254Z,-5.07
2023-02-28T06:08:01.349Z,-5.08
2023-02-28T06:10:29.882Z,-5.09
2023-02-28T06:13:03.505Z,-5.07
2023-02-28T06:15:34.052Z,-5.06
2023-02-28T06:18:04.321Z,-5.06
2023-02-28T06:20:34.474Z,-5.04
2023-02-28T06:23:04.694Z,-5.03
2023-02-28T06:25:34.773Z,-4.99
2023-02-28T06:28:05.277Z,-4.95
2023-02-28T06:30:35.438Z,-4.91
2023-02-28T06:33:05.700Z,-4.85
2023-02-28T06:35:36.256Z,-4.82
2023-02-28T06:38:06.351Z,-4.78
2023-02-28T06:40:36.943Z,-4.76
2023-02-28T06:43:06.989Z,-4.71
2023-02-28T06:45:37.132Z,-4.65
2023-02-28T06:48:07.276Z,-4.60
2023-02-28T06:50:38.385Z,-4.54
2023-02-28T06:53:08.378Z,-4.48
2023-02-28T06:55:40.791Z,-4.41
2023-02-28T06:58:16.936Z,-4.35
2023-02-28T07:00:53.421Z,-4.28
2023-02-28T07:03:24.197Z,-4.22
2023-02-28T07:05:54.354Z,-4.13
2023-02-28T07:08:26.461Z,-4.05
2023-02-28T07:10:57.948Z,-3.98
2023-02-28T07:13:28.129Z,-3.89
2023-02-28T07:16:05.764Z,-3.78
2023-02-28T07:18:38.173Z,-3.63
2023-02-28T07:21:11.765Z,-3.47
2023-02-28T07:23:42.807Z,-3.28
2023-02-28T07:26:19.265Z,-3.09
2023-02-28T07:28:51.142Z,-2.84
2023-02-28T07:31:21.331Z,-2.57
2023-02-28T07:33:51.385Z,-2.31
2023-02-28T07:36:21.409Z,-2.03
2023-02-28T07:38:51.656Z,-1.73
2023-02-28T07:41:25.771Z,-1.41
2023-02-28T07:44:00.625Z,-1.09
2023-02-28T07:46:36.659Z,-0.77
2023-02-28T07:49:07.306Z,-0.46
2023-02-28T07:51:37.421Z,-0.15
2023-02-28T07:54:07.500Z,0.11
2023-02-28T07:56:37.525Z,0.42
2023-02-28T07:59:07.544Z,0.58
2023-02-28T08:01:37.605Z,1.01
2023-02-28T08:04:07.649Z,1.27
2023-02-28T08:06:37.683Z,1.46
2023-02-28T08:09:07.773Z,1.48
2023-02-28T08:11:37.335Z,1.79
2023-02-28T08:14:04.603Z,2.32
2023-02-28T08:16:33.008Z,2.35
2023-02-28T08:19:01.450Z,2.57
2023-02-28T08:21:30.262Z,2.56
2023-02-28T08:23:58.237Z,2.43
2023-02-28T08:26:27.217Z,2.48
2023-02-28T08:28:56.834Z,2.58
2023-02-28T08:31:26.499Z,3.08
2023-02-28T08:33:59.906Z,3.01
2023-02-28T08:36:30.075Z,3.29
2023-02-28T08:39:00.744Z,3.01
2023-02-28T08:41:31.499Z,3.30
2023-02-28T08:44:02.519Z,3.52
2023-02-28T08:46:32.554Z,3.46
2023-02-28T08:49:02.943Z,3.28
2023-02-28T08:51:33.383Z,3.74
2023-02-28T08:54:03.578Z,3.93
2023-02-28T08:56:33.635Z,4.10
2023-02-28T08:59:03.664Z,4.52
2023-02-28T09:01:33.885Z,4.60
2023-02-28T09:04:04.373Z,4.59
2023-02-28T09:06:34.430Z,5.03
2023-02-28T09:09:07.412Z,5.39
2023-02-28T09:11:38.314Z,5.59
2023-02-28T09:14:08.833Z,5.27
2023-02-28T09:16:38.921Z,5.34
2023-02-28T09:19:13.801Z,5.59
2023-02-28T09:21:43.911Z,5.89
2023-02-28T09:24:16.149Z,5.85
2023-02-28T09:27:01.727Z,5.88
2023-02-28T09:29:36.218Z,6.13
2023-02-28T09:32:06.966Z,6.36
2023-02-28T09:34:38.118Z,5.83
2023-02-28T09:37:09.138Z,5.82
2023-02-28T09:39:36.647Z,5.84
2023-02-28T09:42:23.560Z,5.44
2023-02-28T09:44:54.737Z,5.17
2023-02-28T09:47:43.330Z,4.90
2023-02-28T09:50:43.756Z,5.00
2023-02-28T09:53:45.793Z,5.38
2023-02-28T09:56:32.946Z,5.42
2023-02-28T09:59:17.142Z,5.20
2023-02-28T10:02:23.232Z,5.51
2023-02-28T10:05:15.683Z,5.01
2023-02-28T10:08:22.418Z,5.42
2023-02-28T10:11:05.418Z,5.91
2023-02-28T10:13:51.515Z,5.91
2023-02-28T10:16:36.164Z,6.21
2023-02-28T10:19:44.550Z,6.50
2023-02-28T10:22:34.130Z,6.88
2023-02-28T10:25:22.891Z,6.73
2023-02-28T10:28:12.182Z,6.53
2023-02-28T10:30:54.735Z,6.05
2023-02-28T10:33:36.850Z,6.27
2023-02-28T10:36:11.381Z,6.62
2023-02-28T10:38:41.900Z,6.71
2023-02-28T10:41:37.432Z,6.45
2023-02-28T10:44:24.932Z,6.40
2023-02-28T10:46:54.964Z,6.42
2023-02-28T10:49:31.650Z,6.93
2023-02-28T10:52:02.247Z,7.07
2023-02-28T10:54:38.889Z,7.00
2023-02-28T10:57:26.976Z,6.68
2023-02-28T11:00:20.059Z,6.77
2023-02-28T11:02:50.406Z,6.58
2023-02-28T11:05:32.438Z,6.34
2023-02-28T11:08:19.370Z,6.39
2023-02-28T11:11:01.867Z,6.16
2023-02-28T11:13:41.171Z,6.04
2023-02-28T11:16:15.355Z,5.74
2023-02-28T11:18:56.608Z,6.29
2023-02-28T11:21:41.390Z,6.27
2023-02-28T11:24:42.691Z,5.96
2023-02-28T11:27:49.244Z,6.13
2023-02-28T11:30:42.218Z,5.46
2023-02-28T11:33:42.746Z,5.68
2023-02-28T11:36:33.052Z,5.66
2023-02-28T11:39:13.687Z,5.58
2023-02-28T11:42:15.133Z,5.55
2023-02-28T11:45:41.635Z,4.89
2023-02-28T11:48:29.019Z,5.41
2023-02-28T11:51:53.171Z,5.23
2023-02-28T11:55:23.779Z,4.89
2023-02-28T11:58:54.932Z,5.05
2023-02-28T12:01:48.130Z,4.78
2023-02-28T12:05:07.871Z,4.87
2023-02-28T12:07:44.285Z,5.01
2023-02-28T12:10:32.923Z,4.79
2023-02-28T12:13:50.602Z,4.70
2023-02-28T12:16:45.850Z,4.48
2023-02-28T12:19:53.745Z,4.67
2023-02-28T12:22:31.532Z,4.69
2023-02-28T12:25:45.847Z,5.19
2023-02-28T12:28:27.403Z,4.80
2023-02-28T12:31:17.010Z,4.53
2023-02-28T12:33:58.404Z,4.43
2023-02-28T12:36:29.771Z,4.51
2023-02-28T12:39:24.124Z,4.56
2023-02-28T12:42:29.564Z,5.18
2023-02-28T12:45:21.765Z,5.07
2023-02-28T12:48:06.948Z,4.88
2023-02-28T12:50:37.195Z,4.43
2023-02-28T12:53:29.945Z,4.52
2023-02-28T12:56:31.816Z,4.63
2023-02-28T12:59:22.923Z,4.58
2023-02-28T13:02:04.730Z,4.93
2023-02-28T13:05:42.544Z,4.95
2023-02-28T13:09:10.175Z,4.98
2023-02-28T13:11:50.348Z,5.27
2023-02-28T13:14:31.556Z,5.24
2023-02-28T13:17:09.946Z,5.19
2023-02-28T13:19:53.215Z,5.06
2023-02-28T13:22:48.174Z,4.79
2023-02-28T13:25:23.917Z,5.39
2023-02-28T13:27:57.977Z,5.45
2023-02-28T13:30:53.897Z,5.41
2023-02-28T13:33:35.268Z,5.48
2023-02-28T13:36:20.442Z,6.08
2023-02-28T13:38:56.516Z,6.21
2023-02-28T13:41:32.809Z,6.26
2023-02-28T13:45:04.301Z,6.21
2023-02-28T13:47:57.000Z,5.95
2023-02-28T13:50:26.884Z,6.26
2023-02-28T13:53:14.808Z,6.64
2023-02-28T13:56:42.750Z,6.71
2023-02-28T13:59:52.943Z,6.66
2023-02-28T14:02:55.082Z,6.67
2023-02-28T14:05:27.839Z,7.07
2023-02-28T14:08:16.329Z,7.19
2023-02-28T14:11:10.351Z,7.27
2023-02-28T14:13:48.294Z,6.87
2023-02-28T14:16:28.267Z,7.02
2023-02-28T14:19:33.979Z,7.06
2023-02-28T14:23:16.370Z,7.20
2023-02-28T14:26:32.044Z,7.10
2023-02-28T14:30:08.008Z,7.16
2023-02-28T14:33:24.629Z,8.03
2023-02-28T14:36:08.176Z,8.43
2023-02-28T14:38:57.512Z,8.29
2023-02-28T14:41:42.837Z,8.46
2023-02-28T14:44:23.900Z,8.95
2023-02-28T14:47:07.495Z,9.24
2023-02-28T14:49:47.655Z,9.68
2023-02-28T14:52:34.558Z,9.79
2023-02-28T14:55:17.937Z,9.72
2023-02-28T14:58:07.725Z,8.90
2023-02-28T15:00:49.759Z,8.15
2023-02-28T15:03:36.307Z,7.21
2023-02-28T15:06:19.093Z,7.38
2023-02-28T15:08:49.133Z,7.56
2023-02-28T15:11:23.365Z,7.71
2023-02-28T15:13:59.093Z,7.23
2023-02-28T15:16:41.384Z,6.39
2023-02-28T15:19:35.566Z,6.06
2023-02-28T15:22:15.723Z,6.01
2023-02-28T15:24:53.521Z,5.61
2023-02-28T15:27:35.134Z,5.13
2023-02-28T15:30:19.726Z,4.93
2023-02-28T15:33:30.560Z,4.70
2023-02-28T15:36:34.402Z,4.61
2023-02-28T15:39:15.545Z,4.54
2023-02-28T15:41:46.121Z,4.66
2023-02-28T15:44:36.951Z,4.47
2023-02-28T15:47:22.553Z,4.27
2023-02-28T15:50:03.268Z,4.14
2023-02-28T15:52:45.139Z,4.08
2023-02-28T15:55:24.792Z,4.09
2023-02-28T15:58:00.688Z,3.78
2023-02-28T16:00:33.930Z,3.57
2023-02-28T16:03:39.878Z,3.34
2023-02-28T16:07:05.821Z,3.10
2023-02-28T16:09:35.825Z,3.09
2023-02-28T16:12:08.290Z,2.90
2023-02-28T16:14:39.721Z,2.72
2023-02-28T16:17:27.950Z,2.57
2023-02-28T16:19:57.162Z,2.50
2023-02-28T16:22:27.390Z,2.38
2023-02-28T16:24:55.420Z,2.28
2023-02-28T16:27:38.331Z,2.19
2023-02-28T16:30:23.504Z,2.11
2023-02-28T16:32:57.019Z,1.98
2023-02-28T16:35:27.114Z,1.88
2023-02-28T16:37:57.222Z,1.76
2023-02-28T16:40:29.697Z,1.78
2023-02-28T16:43:08.265Z,1.69
2023-02-28T16:45:38.450Z,1.56
2023-02-28T16:48:17.215Z,1.40
2023-02-28T16:50:45.904Z,1.25
2023-02-28T16:53:16.033Z,1.27
2023-02-28T16:55:46.483Z,1.13
2023-02-28T16:58:18.427Z,1.01
2023-02-28T17:00:48.631Z,0.89
2023-02-28T17:03:33.563Z,0.76
2023-02-28T17:06:05.660Z,0.58
2023-02-28T17:08:35.964Z,0.43
2023-02-28T17:11:06.099Z,0.29
2023-02-28T17:13:36.121Z,0.15
2023-02-28T17:16:07.391Z,0.03
2023-02-28T17:18:37.624Z,-0.09
2023-02-28T17:21:18.094Z,-0.22
2023-02-28T17:23:48.168Z,-0.35
2023-02-28T17:26:22.350Z,-0.47
2023-02-28T17:28:56.855Z,-0.59
2023-02-28T17:31:28.692Z,-0.69
2023-02-28T17:33:58.802Z,-0.80
2023-02-28T17:36:29.353Z,-0.88
2023-02-28T17:38:59.611Z,-0.99
2023-02-28T17:41:31.398Z,-1.08
2023-02-28T17:44:01.127Z,-1.17
2023-02-28T17:46:29.936Z,-1.25
2023-02-28T17:48:58.056Z,-1.33
2023-02-28T17:51:26.830Z,-1.41
2023-02-28T17:53:54.919Z,-1.48
2023-02-28T17:56:27.271Z,-1.55
2023-02-28T17:58:58.397Z,-1.64
2023-02-28T18:01:29.161Z,-1.70
2023-02-28T18:03:59.252Z,-1.75
2023-02-28T18:06:48.321Z,-1.83
2023-02-28T18:09:23.749Z,-1.89
2023-02-28T18:11:57.096Z,-1.94
2023-02-28T18:14:28.119Z,-2.00
2023-02-28T18:16:58.359Z,-2.08
2023-02-28T18:19:28.469Z,-2.14
2023-02-28T18:21:58.732Z,-2.19
2023-02-28T18:24:28.771Z,-2.25
2023-02-28T18:26:57.220Z,-2.30
2023-02-28T18:29:28.648Z,-2.37
2023-02-28T18:31:57.594Z,-2.44
2023-02-28T18:34:26.549Z,-2.49
2023-02-28T18:36:54.076Z,-2.52
2023-02-28T18:39:22.484Z,-2.57
2023-02-28T18:41:50.660Z,-2.58
2023-02-28T18:44:20.975Z,-2.62
2023-02-28T18:46:51.354Z,-2.68
2023-02-28T18:49:21.749Z,-2.72
2023-02-28T18:51:52.958Z,-2.77
2023-02-28T18:54:22.997Z,-2.80
2023-02-28T18:56:54.076Z,-2.85
2023-02-28T18:59:24.171Z,-2.90
2023-02-28T19:01:54.249Z,-2.92
2023-02-28T19:04:24.545Z,-2.95
2023-02-28T19:06:54.571Z,-2.98
2023-02-28T19:09:24.740Z,-3.03
2023-02-28T19:11:54.803Z,-3.06
2023-02-28T19:14:24.841Z,-3.10
2023-02-28T19:16:54.923Z,-3.12
2023-02-28T19:19:24.980Z,-3.13
2023-02-28T19:21:56.254Z,-3.15
2023-02-28T19:24:26.352Z,-3.17
2023-02-28T19:26:56.421Z,-3.22
2023-02-28T19:29:27.239Z,-3.26
2023-02-28T19:31:57.451Z,-3.28
2023-02-28T19:34:27.641Z,-3.31
2023-02-28T19:36:57.750Z,-3.33
2023-02-28T19:39:27.920Z,-3.37
2023-02-28T19:41:57.963Z,-3.40
2023-02-28T19:44:28.250Z,-3.44
2023-02-28T19:46:58.323Z,-3.47
2023-02-28T19:49:28.430Z,-3.48
2023-02-28T19:51:59.458Z,-3.48
2023-02-28T19:54:29.657Z,-3.51
2023-02-28T19:56:59.820Z,-3.53
2023-02-28T19:59:39.245Z,-3.57
2023-02-28T20:02:19.089Z,-3.59
2023-02-28T20:04:51.224Z,-3.62
2023-02-28T20:07:21.609Z,-3.64
2023-02-28T20:09:51.951Z,-3.67
2023-02-28T20:12:24.329Z,-3.71
2023-02-28T20:14:58.223Z,-3.72
2023-02-28T20:17:28.371Z,-3.73
2023-02-28T20:19:58.429Z,-3.75
2023-02-28T20:22:28.476Z,-3.75
2023-02-28T20:24:58.530Z,-3.76
2023-02-28T20:27:29.496Z,-3.80
2023-02-28T20:29:58.772Z,-3.83
2023-02-28T20:32:29.021Z,-3.86
2023-02-28T20:34:59.206Z,-3.90
2023-02-28T20:37:29.289Z,-3.92
2023-02-28T20:39:59.351Z,-3.95
2023-02-28T20:42:29.369Z,-3.95
2023-02-28T20:44:59.625Z,-3.96
2023-02-28T20:47:29.727Z,-3.96
2023-02-28T20:49:59.766Z,-4.00
2023-02-28T20:52:29.441Z,-4.02
2023-02-28T20:54:59.509Z,-4.05
2023-02-28T20:57:30.808Z,-4.09
2023-02-28T21:00:00.188Z,-4.12
2023-02-28T21:02:31.260Z,-4.15
2023-02-28T21:05:00.707Z,-4.18
2023-02-28T21:07:30.869Z,-4.19
2023-02-28T21:10:00.896Z,-4.19
2023-02-28T21:12:31.016Z,-4.20
2023-02-28T21:15:01.094Z,-4.21
2023-02-28T21:17:30.941Z,-4.23
2023-02-28T21:20:00.967Z,-4.26
2023-02-28T21:22:30.989Z,-4.29
2023-02-28T21:24:59.425Z,-4.33
2023-02-28T21:27:28.030Z,-4.34
2023-02-28T21:29:56.264Z,-4.37
2023-02-28T21:32:24.710Z,-4.39
2023-02-28T21:34:54.788Z,-4.41
2023-02-28T21:37:24.835Z,-4.44
2023-02-28T21:39:53.037Z,-4.46
2023-02-28T21:42:21.557Z,-4.47
2023-02-28T21:44:50.386Z,-4.50
2023-02-28T21:47:18.140Z,-4.53
2023-02-28T21:49:46.616Z,-4.54
2023-02-28T21:52:15.076Z,-4.53
2023-02-28T21:54:42.464Z,-4.54
2023-02-28T21:57:14.256Z,-4.55
2023-02-28T21:59:44.752Z,-4.59
2023-02-28T22:02:14.842Z,-4.62
2023-02-28T22:04:44.910Z,-4.66
2023-02-28T22:07:15.861Z,-4.70
2023-02-28T22:09:45.916Z,-4.72
2023-02-28T22:12:16.492Z,-4.74
2023-02-28T22:14:46.604Z,-4.76
2023-02-28T22:17:16.696Z,-4.78
2023-02-28T22:19:46.843Z,-4.80
2023-02-28T22:22:16.906Z,-4.82
2023-02-28T22:24:46.973Z,-4.84
2023-02-28T22:27:17.081Z,-4.85
2023-02-28T22:29:48.734Z,-4.87
2023-02-28T22:32:18.893Z,-4.88
2023-02-28T22:34:52.835Z,-4.89
2023-02-28T22:37:22.916Z,-4.89
2023-02-28T22:39:52.986Z,-4.89
2023-02-28T22:42:23.322Z,-4.93
2023-02-28T22:44:53.375Z,-4.96
2023-02-28T22:47:26.552Z,-4.97
2023-02-28T22:49:56.586Z,-4.99
2023-02-28T22:52:26.603Z,-5.01
2023-02-28T22:54:56.728Z,-5.03
2023-02-28T22:57:26.812Z,-5.06
2023-02-28T22:59:56.867Z,-5.08
2023-02-28T23:02:27.284Z,-5.10
2023-02-28T23:04:57.369Z,-5.11
2023-02-28T23:07:27.884Z,-5.12
2023-02-28T23:09:57.945Z,-5.14
2023-02-28T23:12:29.243Z,-5.16
2023-02-28T23:14:59.892Z,-5.16
2023-02-28T23:17:32.340Z,-5.18
2023-02-28T23:20:02.443Z,-5.19
2023-02-28T23:22:32.706Z,-5.20
2023-02-28T23:25:02.874Z,-5.21
2023-02-28T23:27:33.683Z,-5.24
2023-02-28T23:30:04.452Z,-5.25
2023-02-28T23:32:32.874Z,-5.27
2023-02-28T23:35:03.015Z,-5.28
2023-02-28T23:37:33.269Z,-5.30
2023-02-28T23:40:06.136Z,-5.32
2023-02-28T23:42:36.427Z,-5.33
2023-02-28T23:45:07.469Z,-5.34
2023-02-28T23:47:34.847Z,-5.37
2023-02-28T23:50:04.023Z,-5.38
2023-02-28T23:52:31.432Z,-5.39
2023-02-28T23:55:00.941Z,-5.41
2023-02-28T23:57:29.756Z,-5.42
2023-02-28T23:59:59.772Z,-5.44
